createdAt,value
2023-01-21T00:02:17.138Z,71.59
2023-01-21T00:04:49.434Z,71.40
2023-01-21T00:07:21.847Z,71.64
2023-01-21T00:09:54.341Z,71.62
2023-01-21T00:12:26.774Z,71.49
2023-01-21T00:14:59.114Z,71.49
2023-01-21T00:17:35.979Z,71.45
2023-01-21T00:20:11.686Z,71.53
2023-01-21T00:22:44.142Z,71.25
2023-01-21T00:25:16.547Z,71.32
2023-01-21T00:27:48.987Z,71.42
2023-01-21T00:30:21.812Z,71.35
2023-01-21T00:32:54.680Z,71.56
2023-01-21T00:35:27.237Z,71.42
2023-01-21T00:37:59.498Z,71.56
2023-01-21T00:40:31.902Z,71.34
2023-01-21T00:43:04.329Z,71.45
2023-01-21T00:45:36.777Z,71.57
2023-01-21T00:48:09.436Z,71.51
2023-01-21T00:50:41.830Z,71.56
2023-01-21T00:53:14.206Z,71.66
2023-01-21T00:55:46.702Z,71.46
2023-01-21T00:58:19.335Z,71.63
2023-01-21T01:00:51.885Z,71.45
2023-01-21T01:03:24.413Z,71.58
2023-01-21T01:05:57.034Z,71.57
2023-01-21T01:08:29.389Z,71.49
2023-01-21T01:11:02.449Z,71.48
2023-01-21T01:13:36.771Z,71.40
2023-01-21T01:16:09.992Z,71.64
2023-01-21T01:18:43.515Z,71.39
2023-01-21T01:21:17.936Z,71.43
2023-01-21T01:23:53.815Z,71.43
2023-01-21T01:26:26.125Z,71.34
2023-01-21T01:28:58.562Z,71.43
2023-01-21T01:31:31.167Z,71.57
2023-01-21T01:34:03.641Z,71.38
2023-01-21T01:36:35.989Z,71.37
2023-01-21T01:39:08.876Z,71.37
2023-01-21T01:41:41.233Z,71.35
2023-01-21T01:44:44.339Z,71.44
2023-01-21T01:47:17.251Z,71.39
2023-01-21T01:49:50.543Z,71.37
2023-01-21T01:52:24.277Z,71.35
2023-01-21T01:55:01.256Z,71.50
2023-01-21T01:57:38.369Z,71.47
2023-01-21T02:00:15.195Z,71.48
2023-01-21T02:03:08.674Z,71.40
2023-01-21T02:05:42.219Z,71.50
2023-01-21T02:08:15.326Z,71.36
2023-01-21T02:10:48.261Z,71.52
2023-01-21T02:13:21.046Z,71.39
2023-01-21T02:16:05.051Z,71.44
2023-01-21T02:18:45.992Z,71.41
2023-01-21T02:21:42.990Z,71.34
2023-01-21T02:24:56.810Z,71.28
2023-01-21T02:27:41.943Z,71.43
2023-01-21T02:30:42.543Z,71.55
2023-01-21T02:33:49.912Z,71.52
2023-01-21T02:36:36.479Z,71.42
2023-01-21T02:39:18.517Z,71.53
2023-01-21T02:42:04.106Z,71.45
2023-01-21T02:44:41.706Z,71.44
2023-01-21T02:47:20.110Z,71.45
2023-01-21T02:49:58.400Z,71.46
2023-01-21T02:52:31.152Z,71.47
2023-01-21T02:55:04.917Z,71.50
2023-01-21T02:57:47.860Z,71.37
2023-01-21T03:00:26.210Z,71.29
2023-01-21T03:03:23.681Z,71.42
2023-01-21T03:06:15.456Z,71.39
2023-01-21T03:08:54.177Z,71.67
2023-01-21T03:11:26.885Z,71.56
2023-01-21T03:14:26.983Z,71.56
2023-01-21T03:17:07.574Z,71.46
2023-01-21T03:19:46.680Z,71.54
2023-01-21T03:22:25.253Z,71.40
2023-01-21T03:25:00.873Z,71.53
2023-01-21T03:27:34.658Z,71.28
2023-01-21T03:30:14.811Z,71.49
2023-01-21T03:32:50.925Z,71.23
2023-01-21T03:35:26.936Z,71.21
2023-01-21T03:38:04.935Z,71.38
2023-01-21T03:40:41.992Z,71.22
2023-01-21T03:43:14.385Z,71.21
2023-01-21T03:45:52.113Z,71.28
2023-01-21T03:48:32.667Z,71.41
2023-01-21T03:51:09.819Z,71.27
2023-01-21T03:53:42.266Z,71.28
2023-01-21T03:56:14.610Z,71.35
2023-01-21T03:58:47.039Z,71.10
2023-01-21T04:01:19.499Z,71.41
2023-01-21T04:03:51.975Z,71.32
2023-01-21T04:06:25.522Z,71.19
2023-01-21T04:08:58.063Z,71.36
2023-01-21T04:11:30.384Z,71.34
2023-01-21T04:14:03.041Z,71.23
2023-01-21T04:16:35.396Z,71.23
2023-01-21T04:19:07.862Z,71.30
2023-01-21T04:21:40.185Z,71.35
2023-01-21T04:24:14.145Z,71.25
2023-01-21T04:26:46.467Z,71.45
2023-01-21T04:29:18.981Z,71.33
2023-01-21T04:31:51.311Z,71.37
2023-01-21T04:34:23.756Z,71.45
2023-01-21T04:36:56.154Z,71.30
2023-01-21T04:39:28.597Z,71.49
2023-01-21T04:42:01.042Z,71.28
2023-01-21T04:44:33.488Z,71.52
2023-01-21T04:47:05.887Z,71.31
2023-01-21T04:49:38.236Z,71.53
2023-01-21T04:52:10.586Z,71.39
2023-01-21T04:54:42.954Z,71.35
2023-01-21T04:57:15.298Z,71.49
2023-01-21T04:59:47.649Z,71.32
2023-01-21T05:02:20.188Z,71.36
2023-01-21T05:04:52.704Z,71.27
2023-01-21T05:07:24.999Z,71.27
2023-01-21T05:09:57.372Z,71.38
2023-01-21T05:12:30.001Z,71.24
2023-01-21T05:15:02.398Z,71.43
2023-01-21T05:17:34.746Z,71.30
2023-01-21T05:20:11.052Z,71.44
2023-01-21T05:22:46.564Z,71.41
2023-01-21T05:25:19.545Z,71.45
2023-01-21T05:27:55.816Z,71.43
2023-01-21T05:30:28.472Z,71.48
2023-01-21T05:33:01.069Z,71.42
2023-01-21T05:35:35.950Z,71.43
2023-01-21T05:38:08.360Z,71.45
2023-01-21T05:40:40.720Z,71.60
2023-01-21T05:43:13.159Z,71.52
2023-01-21T05:45:45.557Z,71.53
2023-01-21T05:48:17.930Z,71.64
2023-01-21T05:50:50.528Z,71.60
2023-01-21T05:53:23.099Z,71.70
2023-01-21T05:55:56.351Z,71.53
2023-01-21T05:58:28.997Z,71.87
2023-01-21T06:01:01.729Z,71.75
2023-01-21T06:03:34.191Z,71.64
2023-01-21T06:06:07.495Z,71.60
2023-01-21T06:08:39.819Z,71.86
2023-01-21T06:11:12.278Z,71.73
2023-01-21T06:13:44.770Z,71.79
2023-01-21T06:16:17.161Z,71.89
2023-01-21T06:18:49.547Z,71.91
2023-01-21T06:21:21.917Z,71.72
2023-01-21T06:23:54.263Z,71.72
2023-01-21T06:26:27.257Z,72.00
2023-01-21T06:28:59.830Z,71.94
2023-01-21T06:31:32.594Z,71.93
2023-01-21T06:34:05.319Z,72.04
2023-01-21T06:36:37.688Z,71.81
2023-01-21T06:39:11.029Z,71.95
2023-01-21T06:41:43.461Z,71.96
2023-01-21T06:44:15.808Z,72.16
2023-01-21T06:47:00.048Z,72.07
2023-01-21T06:49:33.276Z,72.06
2023-01-21T06:52:06.395Z,72.26
2023-01-21T06:54:38.791Z,72.17
2023-01-21T06:57:11.351Z,72.25
2023-01-21T06:59:43.771Z,72.17
2023-01-21T07:02:16.375Z,72.50
2023-01-21T07:04:51.525Z,72.26
2023-01-21T07:07:22.351Z,72.28
2023-01-21T07:09:54.772Z,72.46
2023-01-21T07:12:27.179Z,72.31
2023-01-21T07:14:59.567Z,72.41
2023-01-21T07:17:31.891Z,72.40
2023-01-21T07:20:05.225Z,72.46
2023-01-21T07:22:37.736Z,72.43
2023-01-21T07:25:11.775Z,72.43
2023-01-21T07:27:45.021Z,72.61
2023-01-21T07:30:20.241Z,72.65
2023-01-21T07:32:52.632Z,72.45
2023-01-21T07:35:25.170Z,72.65
2023-01-21T07:37:57.530Z,72.59
2023-01-21T07:40:30.061Z,72.87
2023-01-21T07:43:02.352Z,72.70
2023-01-21T07:45:35.416Z,73.02
2023-01-21T07:48:08.567Z,73.09
2023-01-21T07:50:40.807Z,73.10
2023-01-21T07:53:14.846Z,73.09
2023-01-21T07:55:47.132Z,73.22
2023-01-21T07:58:19.535Z,72.87
2023-01-21T08:00:51.909Z,73.13
2023-01-21T08:03:25.356Z,72.93
2023-01-21T08:05:57.842Z,72.96
2023-01-21T08:08:30.333Z,73.07
2023-01-21T08:11:02.659Z,73.04
2023-01-21T08:13:35.053Z,73.20
2023-01-21T08:16:11.710Z,73.15
2023-01-21T08:18:44.176Z,72.99
2023-01-21T08:21:16.600Z,72.95
2023-01-21T08:23:49.206Z,73.34
2023-01-21T08:26:23.028Z,73.59
2023-01-21T08:28:57.492Z,73.44
2023-01-21T08:31:29.868Z,73.52
2023-01-21T08:34:02.312Z,73.43
2023-01-21T08:36:34.886Z,73.46
2023-01-21T08:39:08.308Z,73.48
2023-01-21T08:41:41.472Z,73.53
2023-01-21T08:44:13.923Z,73.44
2023-01-21T08:46:46.275Z,73.66
2023-01-21T08:49:18.726Z,73.61
2023-01-21T08:51:51.578Z,73.53
2023-01-21T08:54:23.934Z,73.68
2023-01-21T08:56:56.914Z,73.66
2023-01-21T08:59:30.259Z,73.72
2023-01-21T09:02:02.735Z,73.66
2023-01-21T09:04:35.577Z,73.90
2023-01-21T09:07:07.893Z,73.71
2023-01-21T09:09:40.315Z,73.71
2023-01-21T09:12:12.713Z,73.90
2023-01-21T09:14:45.293Z,73.93
2023-01-21T09:17:17.619Z,73.98
2023-01-21T09:19:50.107Z,73.99
2023-01-21T09:22:22.412Z,73.96
2023-01-21T09:24:54.810Z,73.97
2023-01-21T09:27:28.306Z,74.26
2023-01-21T09:30:00.785Z,74.27
2023-01-21T09:32:33.285Z,74.17
2023-01-21T09:35:06.211Z,74.12
2023-01-21T09:37:38.673Z,74.20
2023-01-21T09:40:17.499Z,74.19
2023-01-21T09:42:49.920Z,74.23
2023-01-21T09:45:23.421Z,74.19
2023-01-21T09:47:56.849Z,74.38
2023-01-21T09:50:29.475Z,74.31
2023-01-21T09:53:15.695Z,74.39
2023-01-21T09:55:50.499Z,74.26
2023-01-21T09:58:31.013Z,74.43
2023-01-21T10:01:09.405Z,74.49
2023-01-21T10:03:51.605Z,74.53
2023-01-21T10:06:39.927Z,74.35
2023-01-21T10:09:28.712Z,74.49
2023-01-21T10:12:14.866Z,74.58
2023-01-21T10:15:06.019Z,74.41
2023-01-21T10:17:52.195Z,74.81
2023-01-21T10:20:28.937Z,74.89
2023-01-21T10:23:07.396Z,74.66
2023-01-21T10:25:40.965Z,74.93
2023-01-21T10:28:20.857Z,74.81
2023-01-21T10:30:55.283Z,74.79
2023-01-21T10:33:29.190Z,74.82
2023-01-21T10:36:18.715Z,74.89
2023-01-21T10:39:02.738Z,74.91
2023-01-21T10:41:55.002Z,74.94
2023-01-21T10:44:36.178Z,75.04
2023-01-21T10:47:15.422Z,74.91
2023-01-21T10:50:00.341Z,75.02
2023-01-21T10:52:39.974Z,74.89
2023-01-21T10:55:28.791Z,75.06
2023-01-21T10:58:04.942Z,75.29
2023-01-21T11:00:43.179Z,75.11
2023-01-21T11:03:21.316Z,75.09
2023-01-21T11:05:53.761Z,75.15
2023-01-21T11:08:27.571Z,75.24
2023-01-21T11:11:00.740Z,75.13
2023-01-21T11:13:33.339Z,75.08
2023-01-21T11:16:06.236Z,75.15
2023-01-21T11:18:41.822Z,75.20
2023-01-21T11:21:20.349Z,75.50
2023-01-21T11:23:58.011Z,75.54
2023-01-21T11:26:32.125Z,75.42
2023-01-21T11:29:16.743Z,75.34
2023-01-21T11:31:51.778Z,75.43
2023-01-21T11:34:25.325Z,75.52
2023-01-21T11:37:04.134Z,75.59
2023-01-21T11:39:40.112Z,75.53
2023-01-21T11:42:17.210Z,75.28
2023-01-21T11:44:55.916Z,75.55
2023-01-21T11:47:39.272Z,75.64
2023-01-21T11:50:24.821Z,75.61
2023-01-21T11:53:11.576Z,75.84
2023-01-21T11:55:46.911Z,75.72
2023-01-21T11:58:23.660Z,75.92
2023-01-21T12:00:58.203Z,75.78
2023-01-21T12:03:35.891Z,75.98
2023-01-21T12:06:10.909Z,76.04
2023-01-21T12:08:45.353Z,76.06
2023-01-21T12:11:22.906Z,75.91
2023-01-21T12:14:00.788Z,75.98
2023-01-21T12:16:38.953Z,75.94
2023-01-21T12:19:28.460Z,75.97
2023-01-21T12:22:24.793Z,75.96
2023-01-21T12:25:08.908Z,76.20
2023-01-21T12:27:52.225Z,76.11
2023-01-21T12:30:33.879Z,76.15
2023-01-21T12:33:12.693Z,76.19
2023-01-21T12:35:50.512Z,76.13
2023-01-21T12:38:27.136Z,76.42
2023-01-21T12:41:05.985Z,76.48
2023-01-21T12:43:43.336Z,76.20
2023-01-21T12:46:19.643Z,76.37
2023-01-21T12:48:58.723Z,76.48
2023-01-21T12:51:35.417Z,76.32
2023-01-21T12:54:17.547Z,76.63
2023-01-21T12:56:56.456Z,76.57
2023-01-21T12:59:34.685Z,76.42
2023-01-21T13:02:20.262Z,76.39
2023-01-21T13:04:55.174Z,76.63
2023-01-21T13:07:41.562Z,76.56
2023-01-21T13:10:20.732Z,76.67
2023-01-21T13:12:59.532Z,76.79
2023-01-21T13:15:36.405Z,76.92
2023-01-21T13:18:16.549Z,76.79
2023-01-21T13:20:54.622Z,76.74
2023-01-21T13:23:35.477Z,76.59
2023-01-21T13:26:17.645Z,76.72
2023-01-21T13:28:57.066Z,76.74
2023-01-21T13:31:36.205Z,76.78
2023-01-21T13:34:17.049Z,76.89
2023-01-21T13:37:11.023Z,76.98
2023-01-21T13:39:51.894Z,76.86
2023-01-21T13:42:38.854Z,76.95
2023-01-21T13:45:22.374Z,76.90
2023-01-21T13:48:22.302Z,76.93
2023-01-21T13:51:08.987Z,77.12
2023-01-21T13:54:12.574Z,77.07
2023-01-21T13:57:14.568Z,77.17
2023-01-21T13:59:52.013Z,77.36
2023-01-21T14:02:30.913Z,77.21
2023-01-21T14:05:10.243Z,77.24
2023-01-21T14:07:46.227Z,77.32
2023-01-21T14:10:31.765Z,77.33
2023-01-21T14:13:20.464Z,77.22
2023-01-21T14:16:11.538Z,77.29
2023-01-21T14:19:17.638Z,77.33
2023-01-21T14:22:07.781Z,77.59
2023-01-21T14:24:55.717Z,77.57
2023-01-21T14:27:35.488Z,77.61
2023-01-21T14:30:15.985Z,77.54
2023-01-21T14:32:51.909Z,77.70
2023-01-21T14:35:28.805Z,77.50
2023-01-21T14:38:14.897Z,77.51
2023-01-21T14:40:52.193Z,77.67
2023-01-21T14:43:50.540Z,77.66
2023-01-21T14:46:34.990Z,77.85
2023-01-21T14:49:09.361Z,77.80
2023-01-21T14:51:49.673Z,77.81
2023-01-21T14:54:27.082Z,77.83
2023-01-21T14:57:13.863Z,77.93
2023-01-21T14:59:51.050Z,77.78
2023-01-21T15:02:31.803Z,77.97
2023-01-21T15:05:16.715Z,77.97
2023-01-21T15:07:59.682Z,77.97
2023-01-21T15:10:35.948Z,77.95
2023-01-21T15:13:25.475Z,78.05
2023-01-21T15:16:15.175Z,77.96
2023-01-21T15:19:05.677Z,77.86
2023-01-21T15:21:44.578Z,78.07
2023-01-21T15:24:26.264Z,77.94
2023-01-21T15:27:22.113Z,78.00
2023-01-21T15:30:33.640Z,78.12
2023-01-21T15:33:13.715Z,78.15
2023-01-21T15:35:46.470Z,78.12
2023-01-21T15:38:19.840Z,77.96
2023-01-21T15:40:58.183Z,78.27
2023-01-21T15:43:37.310Z,78.28
2023-01-21T15:46:26.192Z,78.30
2023-01-21T15:49:17.032Z,78.31
2023-01-21T15:52:01.996Z,78.41
2023-01-21T15:54:41.330Z,78.40
2023-01-21T15:57:33.724Z,78.29
2023-01-21T16:00:26.244Z,78.28
2023-01-21T16:03:03.595Z,78.60
2023-01-21T16:05:48.691Z,78.35
2023-01-21T16:08:35.928Z,78.35
2023-01-21T16:11:24.157Z,78.30
2023-01-21T16:14:09.267Z,78.65
2023-01-21T16:16:55.186Z,78.45
2023-01-21T16:19:31.856Z,78.51
2023-01-21T16:22:07.750Z,78.62
2023-01-21T16:24:45.164Z,78.51
2023-01-21T16:27:23.930Z,78.43
2023-01-21T16:30:00.629Z,78.62
2023-01-21T16:32:33.723Z,78.50
2023-01-21T16:35:07.626Z,78.55
2023-01-21T16:37:41.851Z,78.57
2023-01-21T16:40:31.152Z,78.73
2023-01-21T16:43:19.126Z,78.71
2023-01-21T16:45:56.647Z,78.68
2023-01-21T16:48:32.168Z,78.61
2023-01-21T16:51:05.061Z,78.71
2023-01-21T16:53:37.504Z,78.48
2023-01-21T16:56:27.337Z,78.64
2023-01-21T16:58:59.682Z,78.53
2023-01-21T17:01:32.975Z,78.82
2023-01-21T17:04:05.604Z,78.80
2023-01-21T17:06:38.362Z,78.64
2023-01-21T17:09:24.805Z,78.85
2023-01-21T17:11:59.391Z,79.02
2023-01-21T17:14:33.920Z,78.79
2023-01-21T17:17:09.713Z,78.61
2023-01-21T17:19:44.367Z,78.86
2023-01-21T17:22:20.716Z,78.88
2023-01-21T17:25:04.458Z,78.79
2023-01-21T17:27:39.255Z,78.99
2023-01-21T17:30:32.933Z,79.13
2023-01-21T17:33:05.837Z,79.03
2023-01-21T17:35:38.315Z,78.93
2023-01-21T17:38:31.168Z,79.06
2023-01-21T17:41:08.232Z,79.03
2023-01-21T17:43:48.920Z,79.03
2023-01-21T17:46:23.129Z,79.13
2023-01-21T17:48:59.448Z,79.06
2023-01-21T17:51:32.984Z,79.30
2023-01-21T17:54:09.573Z,79.04
2023-01-21T17:56:49.455Z,79.15
2023-01-21T17:59:38.089Z,79.17
2023-01-21T18:02:14.318Z,79.34
2023-01-21T18:04:46.947Z,79.41
2023-01-21T18:07:25.040Z,79.30
2023-01-21T18:10:00.523Z,79.13
2023-01-21T18:12:32.924Z,79.38
2023-01-21T18:15:05.521Z,79.28
2023-01-21T18:17:46.681Z,79.33
2023-01-21T18:20:21.882Z,79.44
2023-01-21T18:22:55.957Z,79.25
2023-01-21T18:25:29.584Z,79.28
2023-01-21T18:28:02.109Z,79.44
2023-01-21T18:30:34.618Z,79.23
2023-01-21T18:33:07.007Z,79.39
2023-01-21T18:35:39.893Z,79.56
2023-01-21T18:38:15.542Z,79.45
2023-01-21T18:40:48.376Z,79.44
2023-01-21T18:43:20.722Z,79.31
2023-01-21T18:45:54.455Z,79.24
2023-01-21T18:48:30.314Z,79.46
2023-01-21T18:51:02.748Z,79.65
2023-01-21T18:53:35.182Z,79.66
2023-01-21T18:56:11.205Z,79.57
2023-01-21T18:58:44.062Z,79.53
2023-01-21T19:01:23.363Z,79.68
2023-01-21T19:03:57.170Z,79.75
2023-01-21T19:06:29.517Z,79.61
2023-01-21T19:09:01.923Z,79.75
2023-01-21T19:11:34.339Z,79.65
2023-01-21T19:14:06.710Z,79.69
2023-01-21T19:16:40.121Z,79.80
2023-01-21T19:19:16.159Z,79.82
2023-01-21T19:21:48.595Z,79.61
2023-01-21T19:24:20.999Z,79.68
2023-01-21T19:26:53.367Z,79.74
2023-01-21T19:29:28.525Z,79.84
2023-01-21T19:32:00.968Z,79.52
2023-01-21T19:34:33.399Z,79.79
2023-01-21T19:37:06.236Z,79.69
2023-01-21T19:39:38.657Z,79.92
2023-01-21T19:42:13.131Z,79.82
2023-01-21T19:44:45.540Z,79.90
2023-01-21T19:47:23.611Z,79.93
2023-01-21T19:49:56.017Z,79.87
2023-01-21T19:52:28.437Z,79.72
2023-01-21T19:55:00.729Z,79.80
2023-01-21T19:57:33.850Z,79.90
2023-01-21T20:00:15.706Z,79.89
2023-01-21T20:02:48.387Z,80.01
2023-01-21T20:05:21.614Z,80.06
2023-01-21T20:07:54.632Z,79.88
2023-01-21T20:10:29.070Z,80.05
2023-01-21T20:13:01.395Z,80.12
2023-01-21T20:15:35.481Z,79.87
2023-01-21T20:18:12.548Z,80.12
2023-01-21T20:20:45.024Z,79.88
2023-01-21T20:23:18.913Z,79.90
2023-01-21T20:25:53.629Z,80.29
2023-01-21T20:28:28.318Z,80.19
2023-01-21T20:31:02.705Z,79.94
2023-01-21T20:33:36.012Z,79.98
2023-01-21T20:36:17.739Z,80.07
2023-01-21T20:38:50.266Z,80.23
2023-01-21T20:41:22.747Z,80.40
2023-01-21T20:43:55.111Z,80.31
2023-01-21T20:46:30.767Z,79.97
2023-01-21T20:49:03.469Z,80.33
2023-01-21T20:51:35.873Z,82.38
2023-01-21T20:54:08.471Z,84.63
2023-01-21T20:56:40.965Z,85.35
2023-01-21T20:59:14.780Z,84.28
2023-01-21T21:01:48.928Z,82.67
2023-01-21T21:04:21.783Z,81.68
2023-01-21T21:06:54.159Z,81.91
2023-01-21T21:09:26.708Z,82.91
2023-01-21T21:11:59.200Z,81.98
2023-01-21T21:14:31.814Z,80.23
2023-01-21T21:17:04.126Z,79.91
2023-01-21T21:19:36.540Z,79.56
2023-01-21T21:22:08.911Z,79.94
2023-01-21T21:24:41.505Z,80.01
2023-01-21T21:27:14.658Z,79.89
2023-01-21T21:29:47.038Z,79.94
2023-01-21T21:32:19.453Z,79.81
2023-01-21T21:34:55.266Z,79.86
2023-01-21T21:37:27.679Z,79.70
2023-01-21T21:40:00.441Z,79.48
2023-01-21T21:42:50.736Z,79.54
2023-01-21T21:45:23.248Z,79.85
2023-01-21T21:48:13.672Z,79.79
2023-01-21T21:50:46.113Z,79.69
2023-01-21T21:53:18.595Z,79.80
2023-01-21T21:55:51.174Z,79.72
2023-01-21T21:58:23.596Z,79.69
2023-01-21T22:00:56.148Z,79.47
2023-01-21T22:03:28.677Z,79.87
2023-01-21T22:06:04.000Z,79.57
2023-01-21T22:08:37.901Z,79.39
2023-01-21T22:11:14.125Z,79.59
2023-01-21T22:13:50.370Z,79.59
2023-01-21T22:16:25.539Z,79.76
2023-01-21T22:18:59.911Z,79.77
2023-01-21T22:21:34.110Z,79.60
2023-01-21T22:24:08.338Z,79.54
2023-01-21T22:26:41.307Z,79.53
2023-01-21T22:29:14.451Z,79.63
2023-01-21T22:31:47.024Z,79.91
2023-01-21T22:34:19.655Z,79.56
2023-01-21T22:36:52.897Z,79.73
2023-01-21T22:39:25.346Z,79.80
2023-01-21T22:42:00.292Z,79.64
2023-01-21T22:44:32.661Z,79.70
2023-01-21T22:47:05.001Z,79.48
2023-01-21T22:49:37.407Z,79.50
2023-01-21T22:52:09.877Z,79.75
2023-01-21T22:54:42.324Z,79.48
2023-01-21T22:57:14.749Z,79.36
2023-01-21T22:59:47.172Z,79.74
2023-01-21T23:02:19.854Z,79.62
2023-01-21T23:04:52.386Z,79.70
2023-01-21T23:07:24.794Z,79.69
2023-01-21T23:09:57.587Z,79.67
2023-01-21T23:12:30.034Z,79.59
2023-01-21T23:15:02.439Z,79.26
2023-01-21T23:17:34.966Z,79.31
2023-01-21T23:20:09.174Z,79.33
2023-01-21T23:22:41.784Z,79.58
2023-01-21T23:25:17.855Z,79.48
2023-01-21T23:27:50.192Z,79.59
2023-01-21T23:30:22.842Z,79.68
2023-01-21T23:32:55.213Z,79.25
2023-01-21T23:35:28.074Z,79.31
2023-01-21T23:38:00.449Z,79.54
2023-01-21T23:40:32.901Z,79.63
2023-01-21T23:43:05.323Z,79.63
2023-01-21T23:45:39.311Z,79.65
2023-01-21T23:48:12.140Z,79.58
2023-01-21T23:50:44.488Z,79.73
2023-01-21T23:53:16.876Z,79.49
2023-01-21T23:55:49.216Z,79.41
2023-01-21T23:58:21.505Z,79.62
